Huvudsida
METAR-TAF:

METAR-TAF

Flygplatser :

Bangkok-Suvarnabhumis flygplats

Bangkok-Suvarnabhumi, Thailand

latitud: 13-40-52N, longitud: 100-44-50E, höjd: 2 m

Aktuellt väderrapport

Denna rapport gjordes för 45 minuter sedan, klockan 17:00 UTC
Vind 10 kt från syd/sydväst, varierande mellan syd och sydväst
Temperatur 29°C
Fuktighet 74%
Tryck 1006 hPa
Sikt 10 km eller mer
Få moln på en höjd av 2000 ft

METAR: VTBS 191700Z 20010KT 170V230 9999 FEW020 29/24 Q1006 NOSIG

Tid: 00:45 (17:45 UTC)

Väderprognos

Denna rapport gjordes för 45 minuter sedan, klockan 17:00 UTC
Prognos gäller från 19 kl. 18 UTC till 20 kl. 24 UTC
Vind 8 kt från syd/sydväst
Sikt 10 km eller mer
Få moln på en höjd av 2000 ft
Temporärt
från 20 kl. 02 UTC till 20 kl. 12 UTC
Sikt: 5000 m
Få moln på en höjd av 1800 ft, Cumulonimbus.
Spridda moln på en höjd av 3000 ft
Brutna moln på en höjd av 10000 ft
åska, regn

TAF: VTBS 191700Z 1918/2024 20008KT 9999 FEW020 TEMPO 2002/2012 5000 TSRA FEW018CB SCT030 BKN100

Aktuella väderrapporter och prognoser från 4000 flygplatser (METAR- och TAF-rapporter).

De tillgängliga stationerna syns som gula och röda prickar på kartan.

För musen över prickarna för att se namnen på stationerna.

Klicka sedan för att få väderrapporter och prognoser.

För att ändra kartan: Klicka på de gröna knapparna med ett svart kors på för att zooma in; den gröna knappen med ett streck på för att zooma ut; eller på de gröna pilarna för angränsande kartor.


METAR-TAF: